Time;durP1;ratioP1;P1;durP2;ratioP2;P2;SDS_P1;SDS_P2;PMS_P1;PMS_P2;Temp;Humidity;BMP_temperature;BMP_pressure;BME280_temperature;BME280_humidity;BME280_pressure;Samples;Min_cycle;Max_cycle;Signal;HPM_P1;HPM_P2
2021/09/25 00:01:12;;;;;;;11.30;8.13;;;;;;;15.59;65.16;96785.69;5095394;28;20443;-69
2021/09/25 00:03:37;;;;;;;11.07;8.37;;;;;;;15.45;65.42;96782.19;5089365;28;20190;-69
2021/09/25 00:06:03;;;;;;;9.63;8.63;;;;;;;15.34;65.91;96788.00;5092165;28;20186;-69
2021/09/25 00:08:29;;;;;;;13.73;8.43;;;;;;;15.31;66.03;96783.09;5093514;28;20174;-69
2021/09/25 00:10:54;;;;;;;10.00;9.00;;;;;;;15.40;65.62;96778.47;5093380;28;20207;-68
2021/09/25 00:13:20;;;;;;;11.57;8.60;;;;;;;15.51;65.20;96778.75;5095271;28;20188;-69
2021/09/25 00:15:45;;;;;;;10.13;8.40;;;;;;;15.44;65.44;96777.91;5102130;28;20303;-69
2021/09/25 00:18:11;;;;;;;11.20;8.47;;;;;;;15.51;65.65;96784.03;5095590;28;20181;-69
2021/09/25 00:20:38;;;;;;;11.80;7.83;;;;;;;15.56;65.39;96780.00;5094574;28;20170;-70
2021/09/25 00:23:04;;;;;;;10.93;8.67;;;;;;;15.66;65.18;96789.22;5094241;28;20174;-69
2021/09/25 00:25:30;;;;;;;11.87;8.43;;;;;;;15.77;64.48;96784.38;5094128;28;20444;-69
2021/09/25 00:27:55;;;;;;;10.43;9.33;;;;;;;15.71;64.57;96785.16;5093838;28;20845;-67
2021/09/25 00:30:21;;;;;;;9.60;8.47;;;;;;;15.77;64.25;96787.81;5094126;28;20189;-69
2021/09/25 00:32:46;;;;;;;11.70;8.10;;;;;;;15.64;64.54;96785.13;5094465;28;20201;-69
2021/09/25 00:35:13;;;;;;;10.40;8.90;;;;;;;15.61;65.09;96782.88;5086336;28;20560;-70
2021/09/25 00:37:38;;;;;;;10.30;8.50;;;;;;;15.66;64.74;96785.75;5093370;28;20568;-70
2021/09/25 00:40:04;;;;;;;14.50;8.80;;;;;;;15.68;64.96;96785.56;5093636;28;20504;-69
2021/09/25 00:42:30;;;;;;;9.40;8.43;;;;;;;15.68;65.06;96780.28;5093421;28;20751;-70
2021/09/25 00:44:57;;;;;;;12.60;8.97;;;;;;;15.63;65.12;96786.13;5092543;28;20783;-70
2021/09/25 00:47:22;;;;;;;9.90;8.90;;;;;;;15.64;64.88;96788.59;5093205;28;20495;-69
2021/09/25 00:49:48;;;;;;;10.83;8.40;;;;;;;15.64;64.51;96788.59;5093900;28;20186;-69
2021/09/25 00:52:14;;;;;;;10.80;8.40;;;;;;;15.55;64.53;96788.94;5085195;28;20269;-69
2021/09/25 00:54:39;;;;;;;10.47;9.00;;;;;;;15.34;64.88;96799.34;5093564;28;20209;-68
2021/09/25 00:57:05;;;;;;;10.67;9.57;;;;;;;15.25;65.74;96795.25;5093300;28;20186;-66
2021/09/25 00:59:31;;;;;;;10.63;8.97;;;;;;;15.29;65.57;96790.38;5093768;28;20268;-69
2021/09/25 01:01:57;;;;;;;10.73;8.93;;;;;;;15.32;65.52;96790.81;5092182;28;20584;-69
2021/09/25 01:04:22;;;;;;;9.80;8.73;;;;;;;15.26;65.53;96786.31;5084823;28;20265;-69
2021/09/25 01:06:48;;;;;;;10.37;9.20;;;;;;;15.26;65.49;96783.66;5093067;28;20827;-68
2021/09/25 01:09:14;;;;;;;10.33;8.93;;;;;;;15.20;65.65;96790.53;5092378;28;20174;-69
2021/09/25 01:11:40;;;;;;;17.60;9.07;;;;;;;15.18;65.78;96789.91;5093800;28;20210;-69
2021/09/25 01:14:06;;;;;;;9.50;8.50;;;;;;;15.16;65.80;96778.72;5093529;28;20238;-69
2021/09/25 01:16:32;;;;;;;12.63;8.03;;;;;;;15.13;65.71;96789.66;5096029;28;20422;-69
2021/09/25 01:18:58;;;;;;;9.97;8.20;;;;;;;15.10;65.80;96782.13;5094737;28;20420;-69
2021/09/25 01:21:23;;;;;;;8.50;7.70;;;;;;;15.10;65.88;96784.78;5093875;28;20494;-69
2021/09/25 01:23:50;;;;;;;9.23;8.10;;;;;;;15.04;65.93;96782.88;5093488;28;20193;-68
2021/09/25 01:26:15;;;;;;;12.13;8.60;;;;;;;14.94;65.95;96787.69;5093197;28;20190;-69
2021/09/25 01:28:42;;;;;;;12.13;8.80;;;;;;;14.89;66.24;96786.41;5091282;28;20446;-69
2021/09/25 01:31:11;;;;;;;10.47;8.67;;;;;;;14.92;66.04;96774.69;5092643;28;20237;-69
2021/09/25 01:33:39;;;;;;;9.87;8.73;;;;;;;14.93;66.24;96776.34;5087116;28;20416;-69
2021/09/25 01:36:06;;;;;;;9.33;8.10;;;;;;;14.95;65.99;96778.75;5091392;28;20496;-69
2021/09/25 01:38:32;;;;;;;9.40;7.57;;;;;;;14.93;65.92;96772.84;5092776;28;20420;-69
2021/09/25 01:40:57;;;;;;;11.00;8.50;;;;;;;14.90;66.24;96777.50;5092528;28;20975;-69
2021/09/25 01:43:23;;;;;;;13.03;8.40;;;;;;;14.94;66.49;96777.13;5092478;28;20411;-69
2021/09/25 01:45:49;;;;;;;11.37;8.20;;;;;;;14.96;66.40;96785.69;5092201;28;20265;-68
2021/09/25 01:48:14;;;;;;;9.73;8.17;;;;;;;14.96;66.24;96780.41;5092451;28;20628;-70
2021/09/25 01:50:42;;;;;;;9.33;8.43;;;;;;;14.98;66.24;96781.03;5092199;28;20228;-68
2021/09/25 01:53:08;;;;;;;9.60;7.30;;;;;;;14.93;66.36;96781.59;5092506;28;20220;-68
2021/09/25 01:55:34;;;;;;;11.63;8.20;;;;;;;14.96;66.10;96786.47;5092722;28;20444;-68
2021/09/25 01:57:59;;;;;;;10.70;7.80;;;;;;;14.98;65.94;96795.03;5092395;28;20190;-69
2021/09/25 02:00:25;;;;;;;10.13;7.60;;;;;;;14.98;66.05;96795.03;5092650;28;20181;-69
2021/09/25 02:02:51;;;;;;;11.30;8.10;;;;;;;15.06;65.81;96780.88;5092332;28;20213;-69
2021/09/25 02:05:17;;;;;;;9.07;7.97;;;;;;;15.08;65.81;96784.16;5084414;28;20562;-69
2021/09/25 02:07:47;;;;;;;10.50;7.87;;;;;;;15.08;65.92;96784.16;5091895;28;20424;-68
2021/09/25 02:10:13;;;;;;;16.47;7.87;;;;;;;15.11;66.02;96772.38;5092256;28;20201;-69
2021/09/25 02:12:38;;;;;;;9.10;7.83;;;;;;;15.15;65.76;96778.94;5092159;28;21099;-69
2021/09/25 02:15:06;;;;;;;9.13;7.93;;;;;;;15.17;65.91;96777.72;5092113;28;20434;-68
2021/09/25 02:17:31;;;;;;;8.50;7.30;;;;;;;15.18;65.76;96779.34;5090625;28;20181;-69
2021/09/25 02:19:57;;;;;;;10.43;7.37;;;;;;;15.17;65.68;96782.19;5091825;28;20565;-68
2021/09/25 02:22:23;;;;;;;8.03;7.20;;;;;;;15.20;65.87;96787.06;5091798;28;20206;-69
2021/09/25 02:24:49;;;;;;;9.10;6.97;;;;;;;15.25;65.52;96794.44;5090816;28;20463;-68
2021/09/25 02:27:14;;;;;;;9.30;6.83;;;;;;;15.23;65.55;96791.97;5090207;28;20638;-69
2021/09/25 02:29:40;;;;;;;9.20;7.73;;;;;;;15.19;65.42;96796.00;5091765;28;20273;-68
2021/09/25 02:32:07;;;;;;;11.60;7.73;;;;;;;15.15;65.68;96790.28;5091394;28;20217;-68
2021/09/25 02:34:33;;;;;;;7.90;6.80;;;;;;;15.18;65.46;96791.75;5084083;28;20178;-69
2021/09/25 02:36:59;;;;;;;10.23;7.67;;;;;;;15.13;65.65;96786.22;5091461;28;20444;-69
2021/09/25 02:39:26;;;;;;;9.27;7.20;;;;;;;15.15;65.68;96790.28;5091472;28;20431;-68
2021/09/25 02:41:52;;;;;;;9.53;8.10;;;;;;;15.16;65.44;96788.47;5091562;28;20256;-68
2021/09/25 02:44:17;;;;;;;8.57;7.67;;;;;;;14.96;65.57;96788.31;5091275;28;20430;-68
2021/09/25 02:46:43;;;;;;;9.60;7.40;;;;;;;14.90;65.77;96777.50;5092410;28;20200;-69
2021/09/25 02:49:09;;;;;;;9.43;7.30;;;;;;;14.86;65.90;96776.28;5091315;28;20212;-69
2021/09/25 02:51:34;;;;;;;8.27;7.37;;;;;;;14.89;65.64;96767.16;5091627;28;20212;-69
2021/09/25 02:54:00;;;;;;;8.60;7.70;;;;;;;14.86;65.52;96771.00;5091536;28;20596;-69
2021/09/25 02:56:26;;;;;;;10.43;8.10;;;;;;;14.86;65.74;96768.34;5089812;28;20178;-69
2021/09/25 02:58:51;;;;;;;9.20;8.07;;;;;;;14.84;65.63;96766.91;5091242;28;20188;-69
2021/09/25 03:01:17;;;;;;;8.43;7.50;;;;;;;14.80;65.60;96766.47;5091665;28;20201;-68
2021/09/25 03:03:43;;;;;;;10.33;7.73;;;;;;;14.74;65.59;96746.13;5087468;28;20260;-68
2021/09/25 03:06:08;;;;;;;8.60;7.33;;;;;;;14.67;65.61;96753.13;5091480;28;20193;-69
2021/09/25 03:08:34;;;;;;;8.97;7.20;;;;;;;14.63;65.88;96765.06;5090680;28;20594;-68
2021/09/25 03:11:00;;;;;;;9.57;7.90;;;;;;;14.62;65.63;96760.81;5091241;28;20213;-69
2021/09/25 03:13:25;;;;;;;11.07;8.83;;;;;;;14.58;66.25;96766.44;5091517;28;20586;-69
2021/09/25 03:15:51;;;;;;;10.00;8.40;;;;;;;14.60;66.36;96758.34;5091643;28;20226;-68
2021/09/25 03:18:16;;;;;;;10.37;8.07;;;;;;;14.57;66.37;96756.06;5091261;28;20170;-68
2021/09/25 03:20:42;;;;;;;9.60;7.47;;;;;;;14.55;66.43;96753.63;5091907;28;20188;-68
2021/09/25 03:23:08;;;;;;;8.80;7.90;;;;;;;14.50;66.30;96755.22;5077888;28;21756;-69
2021/09/25 03:25:33;;;;;;;8.77;7.13;;;;;;;14.48;66.41;96760.69;5091084;28;20204;-69
2021/09/25 03:27:59;;;;;;;11.03;7.93;;;;;;;14.46;66.56;96754.78;5090487;28;20213;-69
2021/09/25 03:30:24;;;;;;;9.90;8.07;;;;;;;14.45;66.50;96753.13;5091050;28;20205;-69
2021/09/25 03:32:50;;;;;;;11.90;7.87;;;;;;;14.48;66.59;96746.66;5090881;28;20653;-67
2021/09/25 03:35:16;;;;;;;11.17;8.23;;;;;;;14.48;66.37;96747.50;5091048;28;20190;-68
2021/09/25 03:37:42;;;;;;;11.70;8.40;;;;;;;14.46;66.58;96753.94;5087445;28;20435;-68
2021/09/25 03:40:09;;;;;;;9.13;8.13;;;;;;;14.44;66.66;96752.31;5091050;28;20605;-68
2021/09/25 03:42:34;;;;;;;10.33;8.50;;;;;;;14.40;66.76;96756.34;5090727;28;20201;-68
2021/09/25 03:45:00;;;;;;;10.40;8.50;;;;;;;14.43;66.55;96750.66;5090949;28;20548;-68
2021/09/25 03:47:25;;;;;;;8.90;8.00;;;;;;;14.43;66.52;96755.13;5091060;28;20189;-68
2021/09/25 03:49:51;;;;;;;11.43;8.90;;;;;;;14.39;66.79;96753.88;5090918;28;20604;-68
2021/09/25 03:52:17;;;;;;;10.60;9.10;;;;;;;14.33;67.10;96752.00;5089595;28;20280;-68
2021/09/25 03:54:42;;;;;;;10.63;9.00;;;;;;;14.35;66.71;96750.00;5086061;28;20220;-68
2021/09/25 03:57:08;;;;;;;10.13;8.00;;;;;;;14.32;66.65;96747.72;5090714;28;20186;-68
2021/09/25 03:59:34;;;;;;;10.80;9.30;;;;;;;14.19;67.16;96753.66;5090801;28;20173;-68
2021/09/25 04:01:59;;;;;;;15.67;8.90;;;;;;;14.05;67.66;96752.72;5089499;28;20629;-68
2021/09/25 04:04:25;;;;;;;16.87;9.83;;;;;;;14.10;67.45;96755.63;5091613;28;20427;-68
2021/09/25 04:06:51;;;;;;;13.70;9.03;;;;;;;14.13;67.10;96749.94;5091500;28;20549;-67
2021/09/25 04:09:16;;;;;;;12.87;9.60;;;;;;;14.11;66.90;96747.53;5096649;28;20182;-70
2021/09/25 04:11:48;;;;;;;11.00;8.20;;;;;;;14.09;66.95;96754.78;5112059;28;20214;-69
2021/09/25 04:14:18;;;;;;;12.17;8.27;;;;;;;14.08;66.96;96757.63;5111026;28;20239;-69
2021/09/25 04:16:43;;;;;;;13.30;8.60;;;;;;;14.05;66.87;96757.97;5094867;28;20419;-69
2021/09/25 04:19:09;;;;;;;12.80;9.50;;;;;;;14.01;66.94;96751.44;5094836;28;20416;-69
2021/09/25 04:21:34;;;;;;;15.00;9.20;;;;;;;14.03;67.31;96754.72;5095302;28;20201;-69
2021/09/25 04:24:00;;;;;;;12.60;8.77;;;;;;;14.02;67.01;96756.53;5092256;28;20186;-70
2021/09/25 04:26:25;;;;;;;9.17;7.67;;;;;;;14.00;67.29;96750.63;5110158;28;20576;-70
2021/09/25 04:28:51;;;;;;;11.97;8.60;;;;;;;13.96;67.11;96755.47;5111985;28;20253;-69
2021/09/25 04:31:17;;;;;;;11.83;8.60;;;;;;;13.98;67.15;96745.56;5112058;28;20265;-68
2021/09/25 04:33:43;;;;;;;8.83;7.93;;;;;;;13.97;67.25;96754.47;5100930;28;20757;-70
2021/09/25 04:36:09;;;;;;;12.10;8.23;;;;;;;13.96;67.08;96760.72;5094253;28;20197;-70
2021/09/25 04:38:34;;;;;;;15.33;8.70;;;;;;;13.96;66.93;96759.91;5092710;28;20917;-69
2021/09/25 04:41:00;;;;;;;13.83;8.63;;;;;;;13.85;67.41;96763.84;5093696;28;20415;-69
2021/09/25 04:43:25;;;;;;;11.67;8.00;;;;;;;13.91;67.16;96767.56;5094031;28;20172;-69
2021/09/25 04:45:51;;;;;;;11.93;8.63;;;;;;;13.79;67.20;96765.41;5094072;28;20184;-68
2021/09/25 04:48:17;;;;;;;10.17;8.20;;;;;;;13.86;67.11;96767.28;5093771;28;20667;-70
2021/09/25 04:50:42;;;;;;;10.77;8.57;;;;;;;13.85;67.15;96763.84;5094191;28;20193;-69
2021/09/25 04:53:13;;;;;;;11.50;8.10;;;;;;;13.84;66.85;96767.47;5090875;28;20925;-69
2021/09/25 04:55:39;;;;;;;10.73;7.90;;;;;;;13.82;67.09;96764.19;5094023;28;20178;-68
2021/09/25 04:58:05;;;;;;;13.10;8.30;;;;;;;13.86;66.87;96759.38;5092977;28;20938;-69
2021/09/25 05:00:31;;;;;;;9.37;7.90;;;;;;;13.86;66.76;96762.00;5093531;28;20451;-69
2021/09/25 05:02:57;;;;;;;9.77;8.07;;;;;;;13.84;66.79;96762.22;5093655;28;20436;-68
2021/09/25 05:05:23;;;;;;;8.80;7.90;;;;;;;13.81;66.92;96765.19;5093474;28;20422;-69
2021/09/25 05:07:48;;;;;;;15.90;8.10;;;;;;;13.83;67.01;96765.84;5093080;28;20694;-66
2021/09/25 05:10:14;;;;;;;9.53;8.53;;;;;;;13.86;66.79;96762.81;5093265;28;20202;-68
2021/09/25 05:12:40;;;;;;;8.80;7.70;;;;;;;13.85;66.55;96757.75;5093386;28;20684;-68
2021/09/25 05:15:06;;;;;;;10.60;7.07;;;;;;;13.85;67.04;96757.75;5058184;28;20205;-69
2021/09/25 05:17:31;;;;;;;12.43;7.53;;;;;;;13.90;66.98;96758.81;5091794;28;20649;-69
2021/09/25 05:19:57;;;;;;;9.93;8.00;;;;;;;13.98;67.01;96753.47;5092068;28;20181;-69
2021/09/25 05:22:22;;;;;;;9.63;7.63;;;;;;;14.12;66.89;96758.84;5088101;28;20689;-68
2021/09/25 05:24:48;;;;;;;10.93;8.10;;;;;;;14.14;66.51;96759.50;5093048;28;20178;-69
2021/09/25 05:27:13;;;;;;;8.27;6.93;;;;;;;14.17;66.26;96756.50;5084497;28;20200;-68
2021/09/25 05:29:39;;;;;;;12.13;7.50;;;;;;;14.13;66.21;96757.84;5093154;28;20189;-69
2021/09/25 05:32:06;;;;;;;10.77;8.10;;;;;;;14.16;66.26;96762.75;5092715;28;20206;-69
2021/09/25 05:34:32;;;;;;;10.70;6.90;;;;;;;14.13;65.92;96745.53;5090847;28;20193;-69
2021/09/25 05:36:58;;;;;;;11.60;7.37;;;;;;;14.16;65.78;96744.31;5091664;28;20440;-68
2021/09/25 05:39:24;;;;;;;8.73;6.90;;;;;;;14.21;66.21;96741.13;5091133;28;20429;-69
2021/09/25 05:41:51;;;;;;;11.70;7.83;;;;;;;14.39;65.75;96753.88;5089826;28;20747;-69
2021/09/25 05:44:16;;;;;;;11.10;9.07;;;;;;;14.52;65.65;96748.72;5075878;28;20503;-68
2021/09/25 05:46:42;;;;;;;11.40;7.73;;;;;;;14.65;65.07;96745.41;5067522;28;20508;-68
2021/09/25 05:49:07;;;;;;;9.30;7.37;;;;;;;14.78;64.61;96742.09;5092373;28;20269;-70
2021/09/25 05:51:33;;;;;;;11.97;8.63;;;;;;;14.93;64.50;96749.13;5093790;28;20208;-69
2021/09/25 05:53:59;;;;;;;11.70;8.20;;;;;;;15.07;63.78;96750.84;5093826;28;20178;-68
2021/09/25 05:56:24;;;;;;;9.53;7.30;;;;;;;15.21;63.60;96754.38;5093903;28;20198;-67
2021/09/25 05:58:50;;;;;;;8.83;7.27;;;;;;;15.35;63.08;96757.94;5093864;28;20678;-69
2021/09/25 06:01:15;;;;;;;11.17;6.77;;;;;;;15.48;62.69;96760.66;5095347;28;20190;-68
2021/09/25 06:03:41;;;;;;;11.33;8.50;;;;;;;15.58;62.29;96751.56;5103900;28;20212;-68
2021/09/25 06:06:07;;;;;;;9.47;7.60;;;;;;;15.66;62.01;96759.31;5105041;28;20182;-68
2021/09/25 06:08:32;;;;;;;14.80;7.60;;;;;;;15.74;61.88;96761.00;5106468;28;20178;-69
2021/09/25 06:10:58;;;;;;;8.53;7.27;;;;;;;15.85;61.57;96767.59;5106361;28;20269;-69
2021/09/25 06:13:23;;;;;;;8.67;7.80;;;;;;;15.91;61.01;96766.78;5106221;28;20198;-69
2021/09/25 06:15:49;;;;;;;9.53;7.90;;;;;;;16.00;60.89;96768.28;5107544;28;20185;-68
2021/09/25 06:18:15;;;;;;;10.33;7.40;;;;;;;16.03;60.46;96767.84;5101930;28;20174;-70
2021/09/25 06:20:40;;;;;;;9.10;6.70;;;;;;;16.17;60.54;96768.72;5097069;28;20512;-67
2021/09/25 06:23:06;;;;;;;7.90;6.77;;;;;;;16.09;60.28;96767.06;5092375;28;20207;-69
2021/09/25 06:25:32;;;;;;;10.20;6.20;;;;;;;16.09;60.43;96759.16;5091488;28;20644;-69
2021/09/25 06:27:58;;;;;;;9.40;7.10;;;;;;;16.26;59.99;96749.03;5092175;28;20473;-69
2021/09/25 06:30:23;;;;;;;8.80;6.40;;;;;;;16.38;59.90;96757.16;5092302;28;20965;-69
2021/09/25 06:32:49;;;;;;;10.47;6.83;;;;;;;16.62;59.38;96756.81;5091322;28;20206;-69
2021/09/25 06:35:16;;;;;;;7.27;6.20;;;;;;;16.70;58.63;96757.44;5088447;28;20261;-68
2021/09/25 06:37:42;;;;;;;7.60;6.80;;;;;;;16.88;58.56;96762.13;5092361;28;20564;-69
2021/09/25 06:40:10;;;;;;;9.97;6.10;;;;;;;17.18;57.63;96755.63;5092238;28;20503;-70
2021/09/25 06:42:36;;;;;;;10.03;7.00;;;;;;;17.79;56.11;96759.78;5091773;28;20958;-69
2021/09/25 06:45:02;;;;;;;17.03;6.47;;;;;;;18.52;55.24;96759.66;5092129;28;20427;-69
2021/09/25 06:47:28;;;;;;;9.00;6.07;;;;;;;19.29;53.27;96762.16;5091794;28;20976;-70
2021/09/25 06:49:54;;;;;;;7.40;6.30;;;;;;;19.58;51.14;96761.66;5091979;28;20431;-68
2021/09/25 06:52:19;;;;;;;10.60;6.83;;;;;;;19.57;51.48;96758.22;5091475;28;20214;-68
2021/09/25 06:54:45;;;;;;;9.50;6.03;;;;;;;19.64;50.98;96761.59;5091618;28;20656;-68
2021/09/25 06:57:10;;;;;;;12.00;6.37;;;;;;;19.49;50.62;96758.47;5091363;28;20184;-67
2021/09/25 06:59:37;;;;;;;17.63;6.73;;;;;;;19.49;51.69;96758.47;5092001;28;20177;-69
2021/09/25 07:02:03;;;;;;;10.07;6.60;;;;;;;19.58;51.53;96761.66;5091141;28;20535;-69
2021/09/25 07:04:28;;;;;;;8.43;5.90;;;;;;;19.70;51.54;96762.56;5088893;28;20412;-68
2021/09/25 07:06:54;;;;;;;8.47;6.50;;;;;;;19.83;51.25;96763.44;5088671;28;20752;-68
2021/09/25 07:09:19;;;;;;;12.13;7.40;;;;;;;19.92;50.81;96762.13;5091579;28;20257;-70
2021/09/25 07:11:45;;;;;;;9.43;8.23;;;;;;;19.93;50.85;96758.44;5091281;28;20206;-69
2021/09/25 07:14:11;;;;;;;10.40;5.90;;;;;;;19.94;51.01;96758.22;5091391;28;20656;-69
2021/09/25 07:16:36;;;;;;;8.30;5.30;;;;;;;20.06;50.68;96763.59;5091411;28;20186;-69
2021/09/25 07:19:06;;;;;;;6.43;5.70;;;;;;;20.19;50.21;96767.94;5091067;28;20185;-69
2021/09/25 07:21:32;;;;;;;7.07;5.43;;;;;;;20.31;50.11;96770.63;5089531;28;20540;-68
2021/09/25 07:23:58;;;;;;;6.20;5.53;;;;;;;20.35;49.44;96773.69;5091425;28;20423;-70
2021/09/25 07:26:23;;;;;;;5.83;5.17;;;;;;;20.47;49.43;96781.69;5091648;28;20637;-70
2021/09/25 07:28:49;;;;;;;7.80;5.47;;;;;;;20.49;49.63;96782.28;5091302;28;20185;-70
2021/09/25 07:31:15;;;;;;;14.00;5.10;;;;;;;20.55;49.84;96787.50;5091289;28;20209;-69
2021/09/25 07:33:41;;;;;;;8.83;5.07;;;;;;;20.63;48.73;96786.38;5091804;28;20197;-68
2021/09/25 07:36:07;;;;;;;10.17;5.50;;;;;;;20.73;48.84;96785.81;5086695;28;20435;-69
2021/09/25 07:38:33;;;;;;;7.63;4.80;;;;;;;20.83;48.24;96787.97;5093045;28;20430;-69
2021/09/25 07:40:58;;;;;;;5.50;5.00;;;;;;;20.72;48.13;96795.66;5092693;28;20553;-68
2021/09/25 07:43:25;;;;;;;7.10;5.73;;;;;;;20.75;48.77;96796.28;5093905;28;20180;-69
2021/09/25 07:45:51;;;;;;;6.10;5.50;;;;;;;21.02;48.73;96794.84;5096360;28;20580;-70
2021/09/25 07:48:17;;;;;;;8.80;5.90;;;;;;;21.27;48.10;96793.00;5096291;28;20944;-69
2021/09/25 07:50:43;;;;;;;5.80;5.13;;;;;;;21.32;47.86;96793.94;5081910;28;20550;-69
2021/09/25 07:53:09;;;;;;;6.10;4.90;;;;;;;21.40;47.40;96795.44;5094102;28;20247;-69
2021/09/25 07:55:35;;;;;;;7.30;4.90;;;;;;;21.38;47.49;96800.19;5095697;28;20444;-67
2021/09/25 07:58:00;;;;;;;6.00;5.00;;;;;;;21.56;47.31;96785.91;5099930;28;20432;-67
2021/09/25 08:00:26;;;;;;;6.73;5.20;;;;;;;21.70;46.80;96788.38;5095505;28;20166;-68
2021/09/25 08:02:52;;;;;;;8.03;5.10;;;;;;;21.45;47.11;96789.41;5095288;28;20303;-70
2021/09/25 08:05:18;;;;;;;5.40;4.57;;;;;;;21.52;47.05;96784.78;5090767;28;20420;-69
2021/09/25 08:07:44;;;;;;;7.70;5.53;;;;;;;21.90;46.13;96780.81;5095201;28;20174;-69
2021/09/25 08:10:11;;;;;;;5.27;4.40;;;;;;;22.06;46.08;96791.78;5094995;28;20186;-68
2021/09/25 08:12:38;;;;;;;4.93;4.23;;;;;;;22.32;45.02;96789.63;5096834;28;20439;-70
2021/09/25 08:15:08;;;;;;;5.70;3.83;;;;;;;22.49;44.75;96790.50;5094486;28;20424;-69
2021/09/25 08:17:33;;;;;;;5.50;4.90;;;;;;;22.53;44.92;96786.34;5095699;28;20412;-69
2021/09/25 08:19:59;;;;;;;11.00;4.53;;;;;;;22.85;44.33;96780.47;5095491;28;20435;-69
2021/09/25 08:22:25;;;;;;;7.80;5.73;;;;;;;22.94;43.39;96790.72;5097507;28;20246;-69
2021/09/25 08:24:51;;;;;;;8.30;5.80;;;;;;;23.12;43.60;96781.69;5103924;28;20206;-68
2021/09/25 08:27:17;;;;;;;6.90;4.90;;;;;;;23.20;43.39;96791.19;5094709;28;20993;-69
2021/09/25 08:29:42;;;;;;;4.80;4.40;;;;;;;23.22;42.41;96789.06;5099664;28;20178;-68
2021/09/25 08:32:08;;;;;;;7.13;4.97;;;;;;;23.32;41.95;96786.53;5093504;28;20830;-69
2021/09/25 08:34:34;;;;;;;6.93;4.40;;;;;;;23.08;43.05;96789.38;5091656;28;20666;-68
2021/09/25 08:37:00;;;;;;;10.47;6.93;;;;;;;23.21;43.45;96787.44;5091721;28;20469;-69
2021/09/25 08:39:26;;;;;;;36.67;16.50;;;;;;;23.40;42.80;96786.16;5095247;28;20485;-68
2021/09/25 08:41:52;;;;;;;4.80;4.30;;;;;;;23.49;42.27;96783.06;5095409;28;20298;-68
2021/09/25 08:44:20;;;;;;;5.83;4.80;;;;;;;23.51;41.90;96786.28;5092883;28;20964;-68
2021/09/25 08:46:46;;;;;;;13.43;5.97;;;;;;;23.70;41.92;96776.91;5091933;28;20174;-67
2021/09/25 08:49:18;;;;;;;18.87;6.70;;;;;;;23.40;42.54;96775.47;5083400;28;20427;-68
2021/09/25 08:51:45;;;;;;;6.10;4.13;;;;;;;23.83;41.50;96778.44;5079541;28;20468;-67
2021/09/25 08:54:10;;;;;;;9.83;6.70;;;;;;;23.88;41.56;96775.81;5093146;27;20902;-67
2021/09/25 08:56:37;;;;;;;4.70;4.30;;;;;;;24.08;40.80;96780.63;5096964;28;20581;-67
2021/09/25 08:59:02;;;;;;;26.27;11.63;;;;;;;23.80;41.08;96772.78;5109736;28;20170;-68
2021/09/25 09:01:28;;;;;;;7.20;4.80;;;;;;;24.13;40.52;96776.41;5105514;28;20440;-67
2021/09/25 09:03:54;;;;;;;4.93;4.43;;;;;;;24.30;40.71;96771.81;5094054;28;20171;-68
2021/09/25 09:06:22;;;;;;;4.53;4.13;;;;;;;24.54;40.45;96774.19;5088268;28;20185;-68
2021/09/25 09:08:51;;;;;;;33.97;15.63;;;;;;;24.75;40.64;96779.75;5095453;28;21139;-69
2021/09/25 09:11:18;;;;;;;5.13;4.07;;;;;;;24.71;40.34;96776.78;5093388;28;20455;-67
2021/09/25 09:13:46;;;;;;;6.27;5.67;;;;;;;24.62;40.98;96780.94;5102662;28;20408;-67
2021/09/25 09:16:13;;;;;;;14.40;5.30;;;;;;;24.71;40.54;96781.31;5110119;28;20440;-68
2021/09/25 09:18:41;;;;;;;5.13;3.93;;;;;;;24.83;40.39;96781.97;5104191;28;20450;-68
2021/09/25 09:21:15;;;;;;;5.80;4.10;;;;;;;24.91;39.80;96788.72;5104036;28;20408;-68
2021/09/25 09:23:55;;;;;;;5.37;4.27;;;;;;;24.69;40.31;96786.94;5094004;28;20411;-69
2021/09/25 09:26:26;;;;;;;5.40;4.60;;;;;;;24.51;40.96;96777.34;5086888;28;20481;-70
2021/09/25 09:28:54;;;;;;;5.00;4.50;;;;;;;24.61;40.88;96774.78;5092197;28;20972;-70
2021/09/25 09:31:21;;;;;;;4.50;3.97;;;;;;;25.02;39.68;96778.91;5094245;28;20500;-68
2021/09/25 09:33:48;;;;;;;5.90;4.10;;;;;;;25.28;39.19;96771.84;5092280;28;20416;-70
2021/09/25 09:36:15;;;;;;;5.83;4.33;;;;;;;24.96;40.13;96778.84;5085738;28;20487;-70
2021/09/25 09:38:50;;;;;;;5.20;4.77;;;;;;;25.04;39.79;96780.25;5092961;28;20419;-70
2021/09/25 09:41:21;;;;;;;7.53;4.17;;;;;;;25.10;39.57;96781.09;5093266;28;20484;-69
2021/09/25 09:43:46;;;;;;;5.53;5.00;;;;;;;24.80;40.19;96774.44;5093444;28;20424;-68
2021/09/25 09:46:13;;;;;;;6.40;4.47;;;;;;;25.11;40.44;96763.97;5091683;28;20424;-69
2021/09/25 09:48:40;;;;;;;4.87;4.40;;;;;;;25.22;40.21;96759.50;5092862;28;20627;-69
2021/09/25 09:51:05;;;;;;;6.60;4.10;;;;;;;25.46;39.18;96759.94;5092729;28;20444;-68
2021/09/25 09:53:45;;;;;;;6.40;4.30;;;;;;;25.18;40.16;96763.75;5092204;28;20411;-68
2021/09/25 09:56:38;;;;;;;6.00;4.40;;;;;;;25.60;39.74;96766.44;5095736;28;20234;-68
2021/09/25 09:59:07;;;;;;;5.70;4.70;;;;;;;25.87;38.96;96757.47;5099655;28;20476;-67
2021/09/25 10:01:34;;;;;;;5.80;4.50;;;;;;;25.77;39.12;96754.72;5092777;28;20470;-68
2021/09/25 10:04:00;;;;;;;5.70;4.70;;;;;;;26.06;38.75;96749.75;5093047;28;20427;-71
2021/09/25 10:06:26;;;;;;;4.80;4.30;;;;;;;25.90;38.86;96753.44;5087384;28;20464;-67
2021/09/25 10:08:52;;;;;;;7.43;4.70;;;;;;;25.97;38.86;96750.50;5092329;28;20938;-69
2021/09/25 10:11:18;;;;;;;6.97;4.20;;;;;;;26.11;38.42;96756.25;5093007;28;20462;-69
2021/09/25 10:13:44;;;;;;;4.93;4.43;;;;;;;25.88;39.07;96751.03;5092260;28;20184;-68
2021/09/25 10:16:11;;;;;;;4.20;3.90;;;;;;;26.31;38.17;96750.13;5093297;28;20257;-67
2021/09/25 10:18:38;;;;;;;5.60;5.10;;;;;;;26.10;38.55;96743.84;5092284;28;20426;-69
2021/09/25 10:21:07;;;;;;;5.27;4.77;;;;;;;26.22;38.94;96739.09;5090716;28;20412;-70
2021/09/25 10:23:34;;;;;;;6.03;5.50;;;;;;;26.23;39.28;96743.38;5091792;28;20432;-70
2021/09/25 10:26:00;;;;;;;7.70;4.60;;;;;;;26.11;39.62;96740.94;5090614;28;20804;-69
2021/09/25 10:28:28;;;;;;;4.90;4.50;;;;;;;26.39;38.71;96738.84;5091605;28;20466;-68
2021/09/25 10:30:54;;;;;;;4.97;4.57;;;;;;;26.33;38.83;96734.56;5091765;28;20200;-69
2021/09/25 10:33:22;;;;;;;5.30;4.80;;;;;;;26.57;38.53;96729.47;5091854;28;20424;-69
2021/09/25 10:35:49;;;;;;;4.77;4.37;;;;;;;26.75;38.43;96732.72;5086825;28;21007;-69
2021/09/25 10:38:30;;;;;;;6.17;4.63;;;;;;;26.61;39.11;96735.13;5082233;28;20414;-69
2021/09/25 10:41:18;;;;;;;6.63;5.40;;;;;;;26.74;38.78;96731.91;5090095;28;20474;-68
2021/09/25 10:43:45;;;;;;;5.53;4.23;;;;;;;26.87;38.58;96724.41;5087829;28;20488;-69
2021/09/25 10:46:12;;;;;;;4.90;4.17;;;;;;;26.76;38.94;96727.06;5090229;28;20825;-68
2021/09/25 10:48:46;;;;;;;5.27;4.03;;;;;;;27.04;37.71;96722.25;5090191;28;20420;-69
2021/09/25 10:51:14;;;;;;;5.17;4.30;;;;;;;27.24;37.73;96725.97;5087988;28;20479;-69
2021/09/25 10:53:43;;;;;;;5.53;4.40;;;;;;;27.49;37.16;96716.25;5091610;28;20424;-69
2021/09/25 10:56:45;;;;;;;7.60;4.00;;;;;;;27.61;37.07;96705.19;5091376;28;20435;-67
2021/09/25 10:59:10;;;;;;;5.60;4.70;;;;;;;27.56;37.85;96706.03;5069755;28;20458;-68
2021/09/25 11:01:38;;;;;;;5.57;5.00;;;;;;;27.70;37.49;96711.63;5094257;28;21046;-68
2021/09/25 11:04:08;;;;;;;7.67;6.37;;;;;;;27.93;36.76;96714.75;5098045;28;20178;-69
2021/09/25 11:07:01;;;;;;;4.90;4.40;;;;;;;27.84;36.92;96711.84;5090929;28;20485;-69
2021/09/25 11:09:30;;;;;;;8.30;4.23;;;;;;;27.92;36.85;96713.94;5100785;28;20436;-69
2021/09/25 11:12:05;;;;;;;4.57;4.17;;;;;;;27.99;36.57;96708.25;5096623;28;20460;-68
2021/09/25 11:14:45;;;;;;;4.07;3.67;;;;;;;28.20;36.49;96709.00;5097948;28;20415;-68
2021/09/25 11:17:17;;;;;;;5.17;4.27;;;;;;;28.11;36.52;96700.69;5096943;28;20451;-68
2021/09/25 11:20:08;;;;;;;4.90;4.47;;;;;;;28.39;36.21;96703.75;5091624;28;20476;-68
2021/09/25 11:22:38;;;;;;;4.87;4.37;;;;;;;28.27;36.45;96704.09;5090939;28;20430;-70
2021/09/25 11:25:10;;;;;;;4.93;4.53;;;;;;;28.66;35.92;96713.25;5091303;28;20446;-70
2021/09/25 11:27:38;;;;;;;7.07;4.50;;;;;;;28.33;36.21;96710.25;5089534;28;20443;-69